Flight Track Log - Related Links

Times and Time Zones

All times are in EDT time to prevent confusion due to time zone crossing. See the TYR394 flight status page for this flight to view local times or setup timezone preferences in your user account.

Time Position Orientation Groundspeed Altitude Reporting Facility
EDT Latitude Longitude Course Direction KTS MPH feet Rate Location/Type
Fri 02:34:00 PM 41.5516 2.5082 52° Northeast  Level Estimated
Fri 02:35:00 PM 41.6150 2.6161 52° Northeast  Level Estimated
Fri 02:36:00 PM 41.6782 2.7243 52° Northeast  Level Estimated
Fri 02:37:00 PM 41.7414 2.8327 52° Northeast  Level Estimated
Fri 02:38:00 PM 41.8045 2.9413 52° Northeast  Level Estimated
Fri 02:39:00 PM 41.8675 3.0501 52° Northeast  Level Estimated
Fri 02:40:00 PM 41.9303 3.1591 52° Northeast  Level Estimated
Fri 02:41:00 PM 41.9931 3.2683 52° Northeast  Level Estimated
Fri 02:42:00 PM 42.0558 3.3778 52° Northeast  Level Estimated
Fri 02:43:00 PM 42.1183 3.4874 52° Northeast  Level Estimated
Fri 02:44:00 PM 42.1808 3.5973 52° Northeast  Level Estimated
Fri 02:45:00 PM 42.2431 3.7074 53° Northeast  Level Estimated
Fri 02:46:00 PM 42.3054 3.8177 53° Northeast  Level Estimated
Fri 02:47:00 PM 42.3675 3.9283 53° Northeast  Level Estimated
Fri 02:48:00 PM 42.4295 4.0390 53° Northeast  Level Estimated
Fri 02:49:00 PM 42.4914 4.1500 53° Northeast  Level Estimated
Fri 02:50:00 PM 42.5532 4.2612 53° Northeast  Level Estimated
Fri 02:51:00 PM 42.6149 4.3726 53° Northeast  Level Estimated
Fri 02:52:00 PM 42.6766 4.4842 53° Northeast  Level Estimated
Fri 02:53:00 PM 42.7380 4.5961 53° Northeast  Level Estimated
Fri 02:54:00 PM 42.7994 4.7082 53° Northeast  Level Estimated
Fri 02:55:00 PM 42.8607 4.8205 53° Northeast  Level Estimated
Fri 02:56:00 PM 42.9218 4.9330 53° Northeast  Level Estimated
Fri 02:57:00 PM 42.9829 5.0457 53° Northeast  Level Estimated
Fri 02:58:00 PM 43.0438 5.1587 54° Northeast  Level Estimated
Fri 02:59:00 PM 43.1047 5.2719 54° Northeast  Level Estimated
Fri 03:00:00 PM 43.1654 5.3853 54° Northeast  Level Estimated
Fri 03:01:00 PM 43.2260 5.4990 54° Northeast  Level Estimated
Fri 03:02:00 PM 43.2865 5.6128 54° Northeast  Level Estimated
Fri 03:03:00 PM 43.3469 5.7269 54° Northeast  Level Estimated
Fri 03:04:00 PM 43.4071 5.8413 54° Northeast  Level Estimated
Fri 03:05:00 PM 43.4673 5.9558 54° Northeast  Level Estimated
Fri 03:06:00 PM 43.5273 6.0706 54° Northeast  Level Estimated
Fri 03:07:00 PM 43.5872 6.1856 54° Northeast  Level Estimated
Fri 03:08:00 PM 43.6470 6.3008 54° Northeast  Level Estimated
Fri 03:09:00 PM 43.7067 6.4163 54° Northeast  Level Estimated
Fri 03:10:00 PM 43.7663 6.5320 54° Northeast  Level Estimated
Fri 03:11:00 PM 43.8258 6.6479 55° Northeast  Level Estimated
Fri 03:12:00 PM 43.8851 6.7641 55° Northeast  Level Estimated
Fri 03:13:00 PM 43.9443 6.8805 55° Northeast  Level Estimated
Fri 03:14:00 PM 44.0034 6.9971 55° Northeast  Level Estimated
Fri 03:15:00 PM 44.0624 7.1140 55° Northeast  Level Estimated
Fri 03:16:00 PM 44.1213 7.2311 55° Northeast  Level Estimated
Fri 03:17:00 PM 44.1800 7.3484 55° Northeast  Level Estimated
Fri 03:18:00 PM 44.2386 7.4659 55° Northeast  Level Estimated
Fri 03:19:00 PM 44.2971 7.5837 55° Northeast  Level Estimated
Fri 03:20:00 PM 44.3555 7.7017 55° Northeast  Level Estimated
Fri 03:21:00 PM 44.4138 7.8200 55° Northeast  Level Estimated
Fri 03:22:00 PM 44.4719 7.9385 55° Northeast  Level Estimated
Fri 03:23:00 PM 44.5299 8.0572 56° Northeast  Level Estimated
Fri 03:24:00 PM 44.5878 8.1762 56° Northeast  Level Estimated
Fri 03:25:00 PM 44.6456 8.2954 56° Northeast  Level Estimated
Fri 03:26:00 PM 44.7032 8.4148 56° Northeast  Level Estimated
Fri 03:27:00 PM 44.7607 8.5345 56° Northeast  Level Estimated
Fri 03:28:00 PM 44.8181 8.6544 56° Northeast  Level Estimated
Fri 03:29:00 PM 44.8754 8.7746 56° Northeast  Level Estimated
Fri 03:30:00 PM 44.9325 8.8950 56° Northeast  Level Estimated
Fri 03:31:00 PM 44.9896 9.0156 56° Northeast  Level Estimated
Fri 03:32:00 PM 45.0465 9.1365 56° Northeast  Level Estimated
Fri 03:33:00 PM 45.1032 9.2576 56° Northeast  Level Estimated
Fri 03:34:00 PM 45.1598 9.3789 56° Northeast  Level Estimated
Fri 03:35:00 PM 45.2163 9.5005 57° Northeast  Level Estimated
Fri 03:36:00 PM 45.2727 9.6224 57° Northeast  Level Estimated
Fri 03:37:00 PM 45.3289 9.7444 57° Northeast  Level Estimated
Fri 03:38:00 PM 45.3851 9.8668 57° Northeast  Level Estimated
Fri 03:39:00 PM 45.4410 9.9893 57° Northeast  Level Estimated
Fri 03:40:00 PM 45.4969 10.1121 57° Northeast  Level Estimated
Fri 03:41:00 PM 45.5526 10.2352 57° Northeast  Level Estimated
Fri 03:42:00 PM 45.6082 10.3585 57° Northeast  Level Estimated
Fri 03:43:00 PM 45.6637 10.4820 57° Northeast  Level Estimated
Fri 03:44:00 PM 45.7190 10.6058 57° Northeast  Level Estimated
Fri 03:45:00 PM 45.7742 10.7298 57° Northeast  Level Estimated
Fri 03:46:00 PM 45.8292 10.8541 58° Northeast  Level Estimated
Fri 03:47:00 PM 45.8841 10.9786 58° Northeast  Level Estimated
Fri 03:48:00 PM 45.9389 11.1034 58° Northeast  Level Estimated
Fri 03:49:00 PM 45.9936 11.2284 58° Northeast  Level Estimated
Fri 03:50:00 PM 46.0481 11.3537 58° Northeast  Level Estimated
Fri 03:51:00 PM 46.1025 11.4792 58° Northeast  Level Estimated
Fri 03:52:00 PM 46.1567 11.6049 58° Northeast  Level Estimated
Fri 03:53:00 PM 46.2108 11.7309 58° Northeast  Level Estimated
Fri 03:54:00 PM 46.2648 11.8572 58° Northeast  Level Estimated
Fri 03:55:00 PM 46.3186 11.9837 58° Northeast  Level Estimated
Fri 03:56:00 PM 46.3722 12.1104 58° Northeast  Level Estimated
Fri 03:57:00 PM 46.4258 12.2374 59° Northeast  Level Estimated
Fri 03:58:00 PM 46.4792 12.3647 59° Northeast  Level Estimated
Fri 03:59:00 PM 46.5325 12.4922 59° Northeast  Level Estimated
Fri 04:00:00 PM 46.5856 12.6199 59° Northeast  Level Estimated
Fri 04:01:00 PM 46.6385 12.7479 59° Northeast  Level Estimated
Fri 04:02:00 PM 46.6914 12.8762 59° Northeast  Level Estimated
Fri 04:03:00 PM 46.7440 13.0047 59° Northeast  Level Estimated
Fri 04:04:00 PM 46.7966 13.1334 59° Northeast  Level Estimated
Fri 04:05:00 PM 46.8490 13.2624 59° Northeast  Level Estimated
Fri 04:06:00 PM 46.9012 13.3917 59° Northeast  Level Estimated
Fri 04:07:00 PM 46.9534 13.5212 59° Northeast  Level Estimated
Fri 04:08:00 PM 47.0053 13.6509 60° Northeast  Level Estimated
Fri 04:09:00 PM 47.0571 13.7809 60° Northeast  Level Estimated
Fri 04:10:00 PM 47.1088 13.9112 60° Northeast  Level Estimated
Fri 04:11:00 PM 47.1603 14.0417 60° Northeast  Level Estimated
Fri 04:12:00 PM 47.2117 14.1725 60° Northeast  Level Estimated
Fri 04:13:00 PM 47.2629 14.3035 60° Northeast  Level Estimated
Fri 04:14:00 PM 47.3140 14.4348 60° Northeast  Level Estimated
Fri 04:15:00 PM 47.3649 14.5663 60° Northeast  Level Estimated
Fri 04:16:00 PM 47.4157 14.6981 60° Northeast  Level Estimated
Fri 04:17:00 PM 47.4663 14.8301 60° Northeast  Level Estimated
Fri 04:18:00 PM 47.5168 14.9624 61° Northeast  Level Estimated
Fri 04:19:00 PM 47.5671 15.0949 61° Northeast  Level Estimated
Fri 04:20:00 PM 47.6172 15.2277 61° Northeast  Level Estimated
Fri 04:21:00 PM 47.6672 15.3608 61° Northeast  Level Estimated
Fri 04:22:00 PM 47.7171 15.4941 61° Northeast  Level Estimated
Fri 04:23:00 PM 47.7668 15.6277 61° Northeast  Level Estimated
Fri 04:24:00 PM 47.8163 15.7615 61° Northeast  Level Estimated
Fri 04:25:00 PM 47.8657 15.8956 61° Northeast  Level Estimated
Fri 04:26:00 PM 47.9149 16.0299 61° Northeast  Level Estimated
Fri 04:27:00 PM 47.9640 16.1645 61° Northeast  Level Estimated
Fri 04:28:00 PM 48.0129 16.2993 61° Northeast  Level Estimated
Fri 04:29:00 PM 48.0617 16.4344 62° Northeast  Level Estimated
Fri 04:30:00 PM 48.1103 16.5697 62° Northeast  Level Estimated
Fri 04:31:00 PM 48.1103 16.5697 146° Southeast  Level Estimated
Fri 04:32:00 PM 48.1103 16.5697 146° Southeast  Level Estimated
Fri 04:33:00 PM 48.1103 16.5697 146° Southeast  Level Estimated
Fri 04:34:00 PM 48.1103 16.5697 146° Southeast  Level Estimated
Fri 04:35:00 PM 48.1103 16.5697 146° Southeast  Level Estimated
Fri 04:36:00 PM 48.1103 16.5697 146° Southeast  Level Estimated
Fri 04:37:00 PM 48.1103 16.5697 146° Southeast  Level Estimated
Fri 04:38:00 PM 48.1103 16.5697 146° Southeast  Level Estimated
Fri 04:39:00 PM 48.1103 16.5697 146° Southeast  Level Estimated
Fri 04:40:00 PM 48.1103 16.5697 146° Southeast  Level Estimated
Fri 04:41:00 PM 48.1103 16.5697 146° Southeast  Level Estimated
Fri 04:42:00 PM 48.1103 16.5697 146° Southeast  Level Estimated
Fri 04:43:00 PM 48.1103 16.5697 146° Southeast  Level Estimated
Fri 04:44:00 PM 48.1103 16.5697 146° Southeast  Level Estimated
Fri 04:45:00 PM 48.1103 16.5697 146° Southeast  Level Estimated
Fri 04:46:00 PM 48.1103 16.5697 146° Southeast  Level Estimated

Login

Don't have an account? Register now (free) for customized features, flight alerts, and more!